Time;durP1;ratioP1;P1;durP2;ratioP2;P2;SDS_P1;SDS_P2;PMS_P1;PMS_P2;Temp;Humidity;BMP_temperature;BMP_pressure;BME280_temperature;BME280_humidity;BME280_pressure;Samples;Min_cycle;Max_cycle;Signal;HPM_P1;HPM_P2
2022/04/09 00:02:12;;;;;;;5.38;1.48;;;;;;;-2.11;100.00;101094.78;5048695;28;20368;-75
2022/04/09 00:04:37;;;;;;;2.50;1.50;;;;;;;-1.99;100.00;101125.69;5053114;28;20044;-75
2022/04/09 00:07:03;;;;;;;6.40;2.13;;;;;;;-2.06;100.00;101116.47;5052214;28;20031;-74
2022/04/09 00:09:29;;;;;;;6.60;2.20;;;;;;;-2.04;100.00;101125.13;5042674;28;20485;-76
2022/04/09 00:11:54;;;;;;;4.95;2.15;;;;;;;-2.09;100.00;101124.50;5050674;28;20325;-75
2022/04/09 00:14:20;;;;;;;4.15;1.90;;;;;;;-2.17;100.00;101137.25;5062287;28;20036;-74
2022/04/09 00:16:55;;;;;;;2.88;1.67;;;;;;;-2.32;100.00;101133.72;5062282;28;20469;-75
2022/04/09 00:19:23;;;;;;;3.63;1.92;;;;;;;-2.40;100.00;101136.75;5062402;28;20033;-75
2022/04/09 00:21:48;;;;;;;3.17;2.00;;;;;;;-2.53;100.00;101136.56;5068996;28;20032;-75
2022/04/09 00:24:14;;;;;;;5.18;2.13;;;;;;;-2.69;100.00;101144.44;5036231;28;20036;-75
2022/04/09 00:26:40;;;;;;;4.50;1.73;;;;;;;-2.81;100.00;101142.44;5037719;28;20037;-74
2022/04/09 00:29:06;;;;;;;4.75;1.80;;;;;;;-2.90;100.00;101138.50;5039140;28;20032;-74
2022/04/09 00:31:32;;;;;;;2.17;1.33;;;;;;;-2.77;100.00;101144.00;5068314;28;20040;-76
2022/04/09 00:33:58;;;;;;;5.28;2.25;;;;;;;-2.67;100.00;101150.47;5084650;28;20055;-75
2022/04/09 00:36:24;;;;;;;2.95;1.33;;;;;;;-2.53;100.00;101143.63;5053274;28;20043;-74
2022/04/09 00:38:50;;;;;;;2.47;1.58;;;;;;;-2.39;100.00;101137.59;5034999;28;20041;-75
2022/04/09 00:41:16;;;;;;;2.30;1.40;;;;;;;-2.33;100.00;101132.88;5084567;28;20044;-74
2022/04/09 00:43:42;;;;;;;6.28;2.38;;;;;;;-2.37;100.00;101141.00;5070076;28;20363;-74
2022/04/09 00:46:11;;;;;;;3.75;2.00;;;;;;;-2.52;100.00;101140.03;5036763;28;20052;-74
2022/04/09 00:48:37;;;;;;;1.90;1.25;;;;;;;-2.62;100.00;101144.09;5082166;28;20029;-75
2022/04/09 00:51:04;;;;;;;5.05;1.92;;;;;;;-2.77;100.00;101143.16;5068425;28;20055;-74
2022/04/09 00:53:41;;;;;;;4.68;2.30;;;;;;;-2.89;100.00;101152.53;5050742;28;20101;-74
2022/04/09 00:56:13;;;;;;;3.58;1.45;;;;;;;-2.96;100.00;101157.25;5066863;28;20105;-75
2022/04/09 00:58:48;;;;;;;2.35;1.77;;;;;;;-2.98;100.00;101160.91;5059863;28;20387;-75
2022/04/09 01:01:14;;;;;;;4.97;2.60;;;;;;;-3.10;100.00;101151.84;5050074;28;20390;-75
2022/04/09 01:03:40;;;;;;;6.47;2.97;;;;;;;-3.13;100.00;101166.00;5050917;28;20044;-77
2022/04/09 01:06:08;;;;;;;5.68;2.92;;;;;;;-3.23;100.00;101169.19;5063020;28;20044;-76
2022/04/09 01:08:33;;;;;;;8.32;3.05;;;;;;;-3.33;100.00;101161.75;5051823;28;20051;-75
2022/04/09 01:10:59;;;;;;;7.13;2.40;;;;;;;-3.34;100.00;101167.09;5034554;28;20474;-76
2022/04/09 01:13:25;;;;;;;5.18;2.60;;;;;;;-3.35;100.00;101168.03;5064714;28;20114;-75
2022/04/09 01:15:50;;;;;;;4.55;2.83;;;;;;;-3.27;100.00;101168.50;5047842;28;20025;-76
2022/04/09 01:18:17;;;;;;;5.95;2.35;;;;;;;-3.20;100.00;101175.16;5048831;28;20032;-76
2022/04/09 01:20:43;;;;;;;4.75;2.45;;;;;;;-3.20;100.00;101174.28;5064197;28;20043;-76
2022/04/09 01:23:09;;;;;;;8.10;2.75;;;;;;;-3.27;100.00;101165.88;5064029;28;20109;-77
2022/04/09 01:25:35;;;;;;;4.13;2.38;;;;;;;-3.34;100.00;101169.72;5032665;28;20082;-76
2022/04/09 01:28:01;;;;;;;4.22;2.17;;;;;;;-3.36;100.00;101164.56;5067533;28;20043;-75
2022/04/09 01:30:27;;;;;;;6.95;3.88;;;;;;;-3.38;100.00;101168.19;5065426;28;20207;-76
2022/04/09 01:32:52;;;;;;;9.80;4.78;;;;;;;-3.66;100.00;101152.91;5062660;28;20024;-75
2022/04/09 01:35:18;;;;;;;8.23;3.53;;;;;;;-3.73;100.00;101168.16;5072018;28;20470;-75
2022/04/09 01:37:43;;;;;;;7.05;3.28;;;;;;;-3.79;100.00;101160.53;5040609;28;20039;-76
2022/04/09 01:40:10;;;;;;;8.68;4.00;;;;;;;-3.69;100.00;101171.47;5046260;28;20028;-76
2022/04/09 01:42:36;;;;;;;9.18;4.18;;;;;;;-3.78;100.00;101165.72;5060834;28;20043;-75
2022/04/09 01:45:04;;;;;;;5.35;3.05;;;;;;;-3.86;100.00;101156.53;5034519;28;20528;-75
2022/04/09 01:47:29;;;;;;;8.55;2.92;;;;;;;-3.72;100.00;101175.09;5065086;28;20097;-76
2022/04/09 01:49:55;;;;;;;6.88;3.08;;;;;;;-3.61;100.00;101177.19;5037120;28;20041;-74
2022/04/09 01:52:21;;;;;;;9.07;3.70;;;;;;;-3.62;100.00;101180.75;5049707;28;20036;-75
2022/04/09 01:54:47;;;;;;;5.53;3.13;;;;;;;-3.68;100.00;101165.25;5033028;28;20064;-75
2022/04/09 01:57:13;;;;;;;10.95;2.67;;;;;;;-3.76;100.00;101163.00;5050360;28;20419;-75
2022/04/09 01:59:41;;;;;;;6.63;2.50;;;;;;;-3.80;100.00;101166.72;5060275;28;20028;-75
2022/04/09 02:02:08;;;;;;;5.03;2.55;;;;;;;-3.92;100.00;101156.78;5027906;28;20029;-75
2022/04/09 02:04:33;;;;;;;6.47;3.20;;;;;;;-3.95;100.00;101164.81;5066793;28;20604;-75
2022/04/09 02:06:59;;;;;;;6.38;3.28;;;;;;;-3.73;100.00;101176.03;5034188;28;20032;-74
2022/04/09 02:09:25;;;;;;;2.55;1.77;;;;;;;-3.71;100.00;101175.94;5065895;28;20115;-74
2022/04/09 02:11:54;;;;;;;6.60;2.45;;;;;;;-3.86;100.00;101156.53;5051997;28;20458;-74
2022/04/09 02:14:19;;;;;;;5.10;2.13;;;;;;;-3.80;100.00;101183.34;5065981;28;20060;-75
2022/04/09 02:16:45;;;;;;;5.82;2.35;;;;;;;-3.73;100.00;101183.03;5041046;28;20064;-75
2022/04/09 02:19:11;;;;;;;5.38;2.70;;;;;;;-3.81;100.00;101186.03;5049147;28;20028;-76
2022/04/09 02:21:37;;;;;;;6.25;3.22;;;;;;;-3.87;100.00;101202.09;5047075;28;20025;-74
2022/04/09 02:24:03;;;;;;;2.17;1.60;;;;;;;-4.02;100.00;101196.66;5044989;28;20176;-75
2022/04/09 02:26:28;;;;;;;5.85;2.22;;;;;;;-4.08;100.00;101193.44;5049809;28;20028;-74
2022/04/09 02:28:54;;;;;;;3.90;2.05;;;;;;;-4.05;100.00;101186.28;5060515;28;20071;-75
2022/04/09 02:31:20;;;;;;;8.10;2.40;;;;;;;-3.93;100.00;101186.63;5063190;28;20497;-75
2022/04/09 02:33:46;;;;;;;5.32;1.67;;;;;;;-3.80;100.00;101187.75;5062832;28;20036;-75
2022/04/09 02:36:13;;;;;;;6.40;3.03;;;;;;;-3.78;100.00;101191.16;5051360;28;20336;-75
2022/04/09 02:38:42;;;;;;;8.25;2.80;;;;;;;-3.93;100.00;101181.38;5066158;28;20102;-75
2022/04/09 02:41:09;;;;;;;2.67;2.00;;;;;;;-4.00;100.00;101175.53;5032640;28;20032;-76
2022/04/09 02:43:38;;;;;;;5.80;2.17;;;;;;;-4.23;100.00;101145.97;5068544;28;20064;-75
2022/04/09 02:46:04;;;;;;;4.32;2.17;;;;;;;-4.08;100.00;101178.53;5063775;28;20935;-75
2022/04/09 02:48:30;;;;;;;15.18;6.15;;;;;;;-4.19;100.00;101170.31;5033491;28;20551;-74
2022/04/09 02:50:55;;;;;;;2.72;2.28;;;;;;;-4.20;100.00;101182.59;5033132;28;20477;-75
2022/04/09 02:53:21;;;;;;;3.00;2.25;;;;;;;-4.27;100.00;101175.06;5065497;28;21043;-75
2022/04/09 02:55:46;;;;;;;5.28;2.35;;;;;;;-4.29;100.00;101158.53;5063355;28;20021;-75
2022/04/09 02:58:12;;;;;;;3.10;2.13;;;;;;;-4.21;100.00;101177.41;5069453;28;20024;-75
2022/04/09 03:00:38;;;;;;;2.53;1.73;;;;;;;-4.18;100.00;101179.91;5044446;28;20592;-74
2022/04/09 03:03:04;;;;;;;2.05;1.88;;;;;;;-4.19;100.00;101180.81;5059780;28;20044;-75
2022/04/09 03:05:29;;;;;;;6.00;2.38;;;;;;;-4.16;100.00;101183.28;5065537;28;20474;-74
2022/04/09 03:07:57;;;;;;;3.00;1.83;;;;;;;-4.19;100.00;101188.69;5069097;28;20490;-74
2022/04/09 03:10:23;;;;;;;4.32;1.60;;;;;;;-4.46;100.00;101154.06;5048401;28;20058;-75
2022/04/09 03:12:49;;;;;;;4.10;1.90;;;;;;;-4.23;100.00;101189.75;5070606;28;20086;-75
2022/04/09 03:15:14;;;;;;;2.03;1.23;;;;;;;-4.30;100.00;101190.97;5034747;28;20028;-75
2022/04/09 03:17:41;;;;;;;10.40;3.47;;;;;;;-4.42;100.00;101200.22;5043686;28;20033;-75
2022/04/09 03:20:07;;;;;;;14.68;3.55;;;;;;;-4.66;100.00;101175.94;5051684;28;20072;-75
2022/04/09 03:22:33;;;;;;;8.45;3.90;;;;;;;-4.56;100.00;101192.13;5066901;28;20036;-75
2022/04/09 03:24:59;;;;;;;6.63;3.05;;;;;;;-4.62;100.00;101202.91;5084416;28;20116;-75
2022/04/09 03:27:25;;;;;;;6.72;3.03;;;;;;;-4.66;100.00;101200.44;5087895;28;20033;-75
2022/04/09 03:29:52;;;;;;;9.65;2.72;;;;;;;-4.64;100.00;101200.34;5051806;28;20041;-75
2022/04/09 03:32:18;;;;;;;4.43;2.83;;;;;;;-4.47;100.00;101210.09;5072044;28;20048;-75
2022/04/09 03:34:44;;;;;;;5.80;2.10;;;;;;;-4.47;100.00;101199.59;5065385;28;20036;-74
2022/04/09 03:37:09;;;;;;;3.20;1.60;;;;;;;-4.46;100.00;101201.31;5062010;28;20372;-75
2022/04/09 03:39:35;;;;;;;4.43;2.17;;;;;;;-4.56;100.00;101187.72;5048711;28;20033;-76
2022/04/09 03:42:01;;;;;;;2.13;1.23;;;;;;;-4.52;100.00;101205.06;5049954;28;20506;-75
2022/04/09 03:44:27;;;;;;;2.40;1.38;;;;;;;-4.58;100.00;101207.09;5066561;28;20032;-74
2022/04/09 03:47:03;;;;;;;5.03;2.08;;;;;;;-4.69;100.00;101203.16;5034012;28;20079;-75
2022/04/09 03:49:29;;;;;;;2.70;1.75;;;;;;;-4.84;100.00;101198.59;5065605;28;22004;-74
2022/04/09 03:51:56;;;;;;;1.92;1.45;;;;;;;-4.82;100.00;101201.16;5067306;28;20104;-75
2022/04/09 03:54:22;;;;;;;3.70;1.40;;;;;;;-4.73;100.00;101200.75;5050677;28;20090;-74
2022/04/09 03:56:47;;;;;;;2.35;1.42;;;;;;;-4.67;100.00;101214.44;5048315;28;20037;-74
2022/04/09 03:59:13;;;;;;;6.53;2.80;;;;;;;-4.69;100.00;101223.31;5048625;28;20386;-74
2022/04/09 04:01:39;;;;;;;7.95;3.92;;;;;;;-4.73;100.00;101227.00;5064874;28;20025;-75
2022/04/09 04:04:05;;;;;;;2.10;1.77;;;;;;;-4.94;100.00;101213.88;5034845;28;20029;-74
2022/04/09 04:06:31;;;;;;;4.35;1.70;;;;;;;-4.82;100.00;101212.47;5064886;28;20039;-75
2022/04/09 04:08:57;;;;;;;2.38;1.63;;;;;;;-4.67;100.00;101216.22;5032392;28;20033;-75
2022/04/09 04:11:23;;;;;;;1.70;1.35;;;;;;;-4.66;100.00;101225.78;5049037;28;20090;-74
2022/04/09 04:13:49;;;;;;;5.00;2.58;;;;;;;-4.71;100.00;101218.13;5065665;28;20604;-74
2022/04/09 04:16:17;;;;;;;3.40;1.75;;;;;;;-4.64;100.00;101222.19;5054581;28;20036;-75
2022/04/09 04:18:43;;;;;;;3.53;1.50;;;;;;;-4.68;100.00;101214.53;5032015;28;20119;-75
2022/04/09 04:21:09;;;;;;;3.58;1.73;;;;;;;-4.71;100.00;101225.13;5063782;28;20037;-74
2022/04/09 04:23:35;;;;;;;3.95;1.80;;;;;;;-4.83;100.00;101228.31;5046882;28;20047;-74
2022/04/09 04:26:01;;;;;;;6.40;2.42;;;;;;;-4.87;100.00;101223.19;5027053;28;20097;-75
2022/04/09 04:28:27;;;;;;;3.05;1.80;;;;;;;-4.82;100.00;101222.97;5065238;28;20370;-75
2022/04/09 04:30:52;;;;;;;9.13;3.67;;;;;;;-4.65;100.00;101225.72;5063451;28;20047;-74
2022/04/09 04:33:18;;;;;;;7.10;2.95;;;;;;;-4.59;100.00;101221.97;5048030;28;20033;-75
2022/04/09 04:35:44;;;;;;;5.72;2.65;;;;;;;-4.67;100.00;101217.06;5042404;28;20033;-75
2022/04/09 04:38:11;;;;;;;4.50;2.40;;;;;;;-4.68;100.00;101214.53;5046580;28;20127;-74
2022/04/09 04:40:37;;;;;;;4.97;2.33;;;;;;;-4.68;100.00;101225.88;5062757;28;20040;-74
2022/04/09 04:43:02;;;;;;;4.15;2.35;;;;;;;-4.73;100.00;101219.13;5067485;28;20398;-75
2022/04/09 04:45:29;;;;;;;5.00;2.40;;;;;;;-4.70;100.00;101221.59;5044580;28;20029;-74
2022/04/09 04:47:55;;;;;;;3.25;1.83;;;;;;;-4.82;100.00;101209.00;5040435;28;20032;-74
2022/04/09 04:50:21;;;;;;;2.83;1.33;;;;;;;-4.72;100.00;101219.03;5064596;28;20032;-75
2022/04/09 04:52:47;;;;;;;5.30;1.70;;;;;;;-4.67;100.00;101232.81;5029429;28;20371;-76
2022/04/09 04:55:14;;;;;;;1.63;1.23;;;;;;;-4.69;100.00;101234.66;5065609;28;20533;-74
2022/04/09 04:57:47;;;;;;;2.70;1.38;;;;;;;-4.83;100.00;101225.69;5033616;28;20032;-75
2022/04/09 05:00:15;;;;;;;;;;;;;;;-4.79;100.00;101237.72;5064535;28;20174;-74
2022/04/09 05:02:41;;;;;;;1.45;1.25;;;;;;;-4.85;100.00;101233.59;5058528;28;19912;-75
2022/04/09 05:05:07;;;;;;;3.10;1.38;;;;;;;-4.89;100.00;101232.03;5037510;28;20051;-75
2022/04/09 05:07:44;;;;;;;2.30;1.45;;;;;;;-4.91;100.00;101233.88;5051872;28;20493;-74
2022/04/09 05:10:12;;;;;;;2.08;1.63;;;;;;;-4.93;100.00;101241.78;5067195;28;20044;-75
2022/04/09 05:12:38;;;;;;;3.42;1.45;;;;;;;-4.90;100.00;101243.44;5064300;28;20025;-75
2022/04/09 05:15:05;;;;;;;2.00;1.30;;;;;;;-4.98;100.00;101235.88;5030399;28;20051;-75
2022/04/09 05:17:31;;;;;;;4.88;1.50;;;;;;;-4.97;100.00;101248.09;5061930;28;20028;-75
2022/04/09 05:19:57;;;;;;;4.00;1.13;;;;;;;-5.03;100.00;101244.88;5037682;28;20037;-76
2022/04/09 05:22:22;;;;;;;3.13;1.25;;;;;;;-5.05;100.00;101251.94;5047511;28;20596;-74
2022/04/09 05:24:49;;;;;;;2.70;1.20;;;;;;;-5.13;100.00;101241.81;5071235;28;20047;-75
2022/04/09 05:27:15;;;;;;;4.22;1.35;;;;;;;-5.26;100.00;101248.47;5051054;28;20640;-75
2022/04/09 05:29:41;;;;;;;1.10;0.88;;;;;;;-5.38;100.00;101258.50;5048980;28;20122;-75
2022/04/09 05:32:06;;;;;;;1.40;0.85;;;;;;;-5.49;100.00;101255.47;5054265;28;20041;-75
2022/04/09 05:34:32;;;;;;;8.15;1.63;;;;;;;-5.65;100.00;101243.91;5031936;28;20101;-75
2022/04/09 05:36:58;;;;;;;3.60;1.33;;;;;;;-5.57;100.00;101247.06;5065977;28;20128;-75
2022/04/09 05:39:23;;;;;;;3.40;1.48;;;;;;;-5.43;100.00;101249.97;5034930;28;20332;-75
2022/04/09 05:41:49;;;;;;;2.88;1.17;;;;;;;-5.45;100.00;101243.09;5031559;28;20103;-75
2022/04/09 05:44:15;;;;;;;4.38;1.48;;;;;;;-5.36;100.00;101237.50;5080888;28;20066;-77
2022/04/09 05:46:40;;;;;;;2.72;1.20;;;;;;;-5.39;100.00;101238.47;5062448;28;20058;-74
2022/04/09 05:49:06;;;;;;;1.27;0.98;;;;;;;-5.41;100.00;101221.94;5040394;28;20494;-76
2022/04/09 05:51:32;;;;;;;4.70;1.35;;;;;;;-5.23;100.00;101237.84;5058221;28;20024;-74
2022/04/09 05:54:01;;;;;;;2.53;1.65;;;;;;;-5.06;100.00;101247.63;5059214;28;20024;-74
2022/04/09 05:56:26;;;;;;;1.80;1.35;;;;;;;-5.10;100.00;101233.81;5059223;28;20385;-74
2022/04/09 05:58:52;;;;;;;2.38;1.25;;;;;;;-5.04;100.00;101245.81;5058377;28;20028;-74
2022/04/09 06:01:17;;;;;;;1.13;0.93;;;;;;;-5.06;100.00;101245.00;5042893;28;20029;-73
2022/04/09 06:03:43;;;;;;;1.90;1.05;;;;;;;-5.04;100.00;101248.44;5059164;28;20470;-74
2022/04/09 06:06:09;;;;;;;3.67;1.75;;;;;;;-5.03;100.00;101242.25;5043874;28;20032;-76
2022/04/09 06:08:40;;;;;;;3.42;1.42;;;;;;;-4.91;100.00;101241.75;5068163;28;20025;-76
2022/04/09 06:11:06;;;;;;;2.10;1.35;;;;;;;-5.02;100.00;101200.25;5043656;28;20036;-77
2022/04/09 06:13:32;;;;;;;4.50;1.48;;;;;;;-4.63;100.00;101238.81;5058702;28;20035;-76
2022/04/09 06:15:58;;;;;;;4.35;1.90;;;;;;;-4.49;100.00;101240.81;5060393;28;20033;-75
2022/04/09 06:18:23;;;;;;;2.78;1.30;;;;;;;-4.42;100.00;101240.47;5057700;28;20040;-76
2022/04/09 06:20:49;;;;;;;2.90;1.80;;;;;;;-3.95;100.00;101241.84;5043915;28;20197;-75
2022/04/09 06:23:15;;;;;;;3.60;1.63;;;;;;;-3.23;100.00;101237.56;5063292;28;20490;-74
2022/04/09 06:25:40;;;;;;;3.72;1.40;;;;;;;-2.87;100.00;101230.44;5047713;28;20044;-74
2022/04/09 06:28:08;;;;;;;5.68;1.60;;;;;;;-2.87;100.00;101221.72;5042407;28;20028;-73
2022/04/09 06:30:34;;;;;;;3.42;1.60;;;;;;;-2.36;100.00;101233.09;5056018;28;20027;-77
2022/04/09 06:32:59;;;;;;;2.15;1.48;;;;;;;-2.08;100.00;101234.25;5057298;28;20040;-77
2022/04/09 06:35:26;;;;;;;3.35;1.67;;;;;;;-1.97;100.00;101233.69;5040724;28;20484;-77
2022/04/09 06:37:51;;;;;;;4.82;1.75;;;;;;;-2.07;100.00;101233.31;5058779;28;20493;-76
2022/04/09 06:40:17;;;;;;;3.90;1.65;;;;;;;-1.90;100.00;101230.63;5056068;28;20047;-76
2022/04/09 06:42:43;;;;;;;3.67;1.85;;;;;;;-1.61;100.00;101239.56;5041936;28;20400;-76
2022/04/09 06:45:09;;;;;;;4.97;1.63;;;;;;;-1.38;100.00;101238.25;5040065;28;20044;-75
2022/04/09 06:47:37;;;;;;;2.88;1.55;;;;;;;-1.39;100.00;101235.72;5065360;28;20520;-75
2022/04/09 06:50:11;;;;;;;2.83;1.58;;;;;;;-1.15;100.00;101255.41;5063704;28;20081;-75
2022/04/09 06:52:36;;;;;;;3.13;2.05;;;;;;;-1.03;100.00;101252.97;5068232;28;20102;-75
2022/04/09 06:55:03;;;;;;;4.10;2.00;;;;;;;-1.03;100.00;101259.13;5032432;28;20419;-76
2022/04/09 06:57:29;;;;;;;5.50;2.35;;;;;;;-0.95;100.00;101262.19;5079101;28;20025;-75
2022/04/09 06:59:59;;;;;;;5.93;2.88;;;;;;;-0.66;100.00;101264.91;5027237;28;20024;-76
2022/04/09 07:02:25;;;;;;;10.98;4.25;;;;;;;0.63;98.95;101263.00;5055875;28;20036;-75
2022/04/09 07:04:53;;;;;;;18.85;6.25;;;;;;;1.96;92.97;101269.09;5043995;28;20094;-75
2022/04/09 07:07:26;;;;;;;16.95;7.18;;;;;;;2.50;91.88;101267.06;5061887;28;20040;-76
2022/04/09 07:09:54;;;;;;;15.23;7.15;;;;;;;3.03;90.81;101270.22;5063067;28;21354;-75
2022/04/09 07:12:22;;;;;;;29.73;10.38;;;;;;;3.42;89.45;101260.22;5066422;28;20032;-76
2022/04/09 07:14:48;;;;;;;24.77;10.35;;;;;;;4.38;86.25;101273.94;5063630;28;20037;-75
2022/04/09 07:17:20;;;;;;;31.77;11.23;;;;;;;5.26;82.72;101282.75;5026701;28;20098;-75
2022/04/09 07:19:46;;;;;;;22.75;9.13;;;;;;;6.39;78.10;101277.50;5031128;28;20040;-75
2022/04/09 07:22:11;;;;;;;19.05;7.03;;;;;;;7.35;73.65;101275.91;5050109;28;20406;-76
2022/04/09 07:24:37;;;;;;;18.67;7.45;;;;;;;7.82;70.84;101294.72;5050212;28;20024;-76
2022/04/09 07:27:03;;;;;;;10.82;4.75;;;;;;;8.01;68.92;101309.03;5044072;28;20058;-76
2022/04/09 07:29:29;;;;;;;7.80;2.85;;;;;;;7.92;69.11;101311.59;5062167;28;20041;-76
2022/04/09 07:31:55;;;;;;;7.00;3.17;;;;;;;8.02;69.68;101318.75;5045270;28;20036;-77
2022/04/09 07:34:20;;;;;;;5.53;2.20;;;;;;;8.23;68.72;101319.41;5055743;28;20056;-76
2022/04/09 07:36:46;;;;;;;6.18;2.65;;;;;;;8.44;67.87;101302.28;5046267;28;20390;-76
2022/04/09 07:39:12;;;;;;;3.45;1.77;;;;;;;8.69;67.16;101314.97;5060132;28;20024;-76
2022/04/09 07:41:38;;;;;;;4.90;1.90;;;;;;;8.96;66.78;101327.50;5059002;28;20102;-76
2022/04/09 07:44:04;;;;;;;6.35;2.15;;;;;;;9.31;65.70;101325.84;5039273;28;20056;-76
2022/04/09 07:46:32;;;;;;;4.43;2.38;;;;;;;9.53;66.27;101319.19;5063296;28;20032;-75
2022/04/09 07:48:58;;;;;;;6.18;2.03;;;;;;;10.04;64.12;101319.38;5062782;28;20036;-75
2022/04/09 07:51:23;;;;;;;4.70;1.92;;;;;;;10.34;63.16;101312.66;5068786;28;20043;-75
2022/04/09 07:53:49;;;;;;;8.02;2.22;;;;;;;10.65;60.83;101320.19;5033468;28;20044;-76
2022/04/09 07:56:15;;;;;;;5.18;2.53;;;;;;;10.75;60.88;101327.13;5057304;28;20039;-76
2022/04/09 07:58:43;;;;;;;6.57;2.60;;;;;;;11.09;61.49;101325.38;5059808;28;20033;-76
2022/04/09 08:01:08;;;;;;;4.22;2.30;;;;;;;11.55;59.96;101317.66;5046446;28;20478;-76
2022/04/09 08:03:34;;;;;;;6.38;2.38;;;;;;;12.35;59.06;101324.97;5048047;28;20038;-77
2022/04/09 08:06:00;;;;;;;7.25;2.22;;;;;;;12.82;55.85;101337.59;5043754;28;20055;-77
2022/04/09 08:08:25;;;;;;;7.55;2.67;;;;;;;13.29;54.24;101339.38;5048428;28;20036;-77
2022/04/09 08:10:51;;;;;;;6.00;2.35;;;;;;;13.87;52.12;101356.00;5040832;28;20029;-78
2022/04/09 08:13:18;;;;;;;5.93;2.50;;;;;;;14.10;50.19;101361.31;5047057;28;20032;-77
2022/04/09 08:15:44;;;;;;;6.05;2.60;;;;;;;14.38;50.27;101354.25;5048459;28;20394;-75
2022/04/09 08:18:11;;;;;;;7.38;2.75;;;;;;;14.57;49.31;101342.06;5061794;28;20458;-75
2022/04/09 08:20:37;;;;;;;4.88;2.80;;;;;;;14.86;48.73;101354.72;5033745;28;20178;-76
2022/04/09 08:23:04;;;;;;;6.15;2.95;;;;;;;15.00;48.96;101368.41;5061764;28;20036;-77
2022/04/09 08:25:29;;;;;;;4.93;2.80;;;;;;;15.49;47.99;101371.25;5048550;28;20043;-76
2022/04/09 08:27:55;;;;;;;5.85;2.92;;;;;;;15.67;46.77;101372.69;5027907;28;20028;-77
2022/04/09 08:30:24;;;;;;;6.38;2.33;;;;;;;15.82;44.84;101376.19;5042730;28;20075;-76
2022/04/09 08:32:52;;;;;;;8.05;3.03;;;;;;;15.74;45.24;101377.16;5040561;28;20037;-77
2022/04/09 08:35:18;;;;;;;7.47;2.25;;;;;;;15.49;47.28;101370.44;5048452;28;20085;-76
2022/04/09 08:37:43;;;;;;;5.45;2.70;;;;;;;16.07;44.71;101375.78;5066238;28;20037;-77
2022/04/09 08:40:13;;;;;;;6.50;2.40;;;;;;;16.45;43.74;101368.91;5062974;28;20073;-76
2022/04/09 08:42:38;;;;;;;8.38;2.35;;;;;;;16.58;43.85;101367.34;5062716;28;20021;-76
2022/04/09 08:45:05;;;;;;;6.00;3.65;;;;;;;16.59;44.27;101369.84;5062867;28;20051;-77
2022/04/09 08:47:33;;;;;;;6.30;2.80;;;;;;;16.28;44.49;101370.28;5045226;28;20076;-77
2022/04/09 08:49:59;;;;;;;6.13;3.10;;;;;;;16.53;43.05;101381.50;5072766;28;20444;-76
2022/04/09 08:52:25;;;;;;;7.22;2.83;;;;;;;15.98;43.72;101381.34;5037444;28;20178;-76
2022/04/09 08:54:51;;;;;;;7.07;2.75;;;;;;;15.71;45.11;101372.13;5049823;28;20040;-77
2022/04/09 08:57:17;;;;;;;7.43;2.65;;;;;;;15.88;44.64;101382.69;5046986;28;20081;-76
2022/04/09 08:59:42;;;;;;;6.45;2.50;;;;;;;16.18;43.87;101381.47;5052177;28;20033;-76
2022/04/09 09:02:08;;;;;;;7.22;3.20;;;;;;;16.19;44.40;101383.16;5067913;28;20032;-76
2022/04/09 09:04:34;;;;;;;9.60;4.00;;;;;;;16.74;43.00;101375.13;5054527;28;20036;-76
2022/04/09 09:07:17;;;;;;;8.20;3.55;;;;;;;17.50;41.32;101385.06;5033038;28;20046;-77
2022/04/09 09:09:43;;;;;;;6.75;3.10;;;;;;;17.48;41.10;101387.13;5071361;28;20039;-76
2022/04/09 09:12:10;;;;;;;10.85;5.50;;;;;;;17.36;40.35;101384.19;5066475;28;20036;-76
2022/04/09 09:14:38;;;;;;;6.82;3.65;;;;;;;17.21;40.61;101375.38;5061214;28;20033;-76
2022/04/09 09:17:04;;;;;;;7.20;2.47;;;;;;;17.44;41.09;101370.41;5051219;28;20046;-78
2022/04/09 09:19:47;;;;;;;5.82;2.15;;;;;;;18.06;38.01;101354.75;5047450;28;20394;-75
2022/04/09 09:22:14;;;;;;;3.92;3.10;;;;;;;18.24;39.07;101356.84;5047741;28;20028;-75
2022/04/09 09:24:40;;;;;;;9.35;4.00;;;;;;;18.79;37.79;101343.72;5086455;28;20078;-76
2022/04/09 09:27:06;;;;;;;6.28;2.90;;;;;;;19.60;35.74;101374.94;5062883;28;20032;-77
2022/04/09 09:29:33;;;;;;;7.82;3.20;;;;;;;19.36;36.32;101375.72;5026899;28;20036;-79
2022/04/09 09:32:04;;;;;;;9.18;2.70;;;;;;;19.55;36.69;101364.69;5070271;28;20051;-81
2022/04/09 09:34:30;;;;;;;4.43;2.53;;;;;;;20.20;34.59;101367.13;5054942;28;20024;-80
2022/04/09 09:36:56;;;;;;;4.93;2.25;;;;;;;20.17;32.40;101364.84;5048973;28;20043;-80
2022/04/09 09:39:23;;;;;;;5.25;2.22;;;;;;;19.85;34.87;101338.69;5055210;28;20033;-80
2022/04/09 09:41:57;;;;;;;8.07;2.42;;;;;;;20.67;31.68;101347.53;5071333;28;20040;-80
2022/04/09 09:44:30;;;;;;;11.30;1.75;;;;;;;21.21;29.42;101369.53;5074594;28;20090;-80
2022/04/09 09:47:07;;;;;;;7.65;2.55;;;;;;;21.29;29.92;101366.47;5039214;28;20051;-80
2022/04/09 09:49:57;;;;;;;6.18;2.55;;;;;;;21.03;29.27;101373.97;5055377;28;20037;-80
2022/04/09 09:52:36;;;;;;;4.68;2.08;;;;;;;20.63;29.18;101358.06;5054954;28;20032;-80
2022/04/09 09:55:10;;;;;;;5.80;2.30;;;;;;;20.41;29.60;101343.16;5053947;28;20068;-80
2022/04/09 09:57:38;;;;;;;7.97;2.80;;;;;;;20.77;29.03;101352.44;5071629;28;20028;-80
2022/04/09 10:00:14;;;;;;;7.63;2.97;;;;;;;20.97;29.57;101350.28;5072711;28;20083;-80
2022/04/09 10:02:40;;;;;;;4.78;2.22;;;;;;;21.30;29.71;101357.19;5069193;28;20039;-80
2022/04/09 10:05:06;;;;;;;9.05;2.28;;;;;;;21.72;29.46;101355.34;5052430;28;20033;-80
2022/04/09 10:07:33;;;;;;;6.32;2.10;;;;;;;21.84;25.97;101362.72;5070581;28;20041;-80
2022/04/09 10:10:04;;;;;;;6.28;2.17;;;;;;;21.79;25.45;101347.00;5070496;28;20028;-81
2022/04/09 10:12:29;;;;;;;5.47;2.85;;;;;;;22.38;24.59;101347.84;5037041;28;20037;-80
2022/04/09 10:14:59;;;;;;;5.55;2.30;;;;;;;22.31;25.23;101352.66;5038298;28;20048;-81
2022/04/09 10:17:26;;;;;;;4.43;2.13;;;;;;;21.88;25.82;101367.47;5070959;28;20119;-80
2022/04/09 10:19:57;;;;;;;7.90;2.38;;;;;;;22.19;25.37;101362.78;5066756;28;20043;-80
2022/04/09 10:22:25;;;;;;;7.97;2.20;;;;;;;22.17;25.11;101363.00;5066682;28;20041;-79
2022/04/09 10:24:53;;;;;;;4.93;2.53;;;;;;;22.39;23.66;101352.28;5070305;28;20470;-79
2022/04/09 10:27:37;;;;;;;7.65;2.00;;;;;;;21.98;23.79;101355.13;5060263;28;20029;-80
2022/04/09 10:30:17;;;;;;;4.55;2.20;;;;;;;22.51;24.52;101365.94;5068779;28;20028;-80
2022/04/09 10:32:54;;;;;;;6.38;1.88;;;;;;;22.72;24.15;101353.53;5063890;28;20462;-79
2022/04/09 10:35:28;;;;;;;8.25;2.40;;;;;;;23.22;22.30;101352.91;5056029;28;20541;-80
2022/04/09 10:38:06;;;;;;;5.53;1.60;;;;;;;23.80;21.95;101358.34;5070128;28;20064;-80
2022/04/09 10:40:32;;;;;;;9.23;2.40;;;;;;;23.60;22.19;101343.13;5088159;28;20028;-79
2022/04/09 10:42:58;;;;;;;6.18;2.70;;;;;;;23.68;22.71;101344.63;5069741;28;20146;-79
2022/04/09 10:45:24;;;;;;;6.65;2.17;;;;;;;23.87;22.08;101342.53;5069556;28;20040;-77
2022/04/09 10:48:14;;;;;;;4.25;1.67;;;;;;;23.98;21.33;101349.03;5065905;28;20058;-77
2022/04/09 10:51:06;;;;;;;7.63;2.38;;;;;;;24.02;21.45;101353.72;5061393;28;20028;-77
2022/04/09 10:53:37;;;;;;;6.10;2.53;;;;;;;24.27;21.30;101350.56;5033088;28;20082;-77
2022/04/09 10:56:13;;;;;;;7.13;2.13;;;;;;;23.96;20.90;101360.25;5050626;28;20054;-76
2022/04/09 10:59:04;;;;;;;9.13;2.38;;;;;;;22.81;23.11;101349.34;5053957;28;20048;-78
2022/04/09 11:01:51;;;;;;;9.43;2.10;;;;;;;22.43;22.18;101366.31;5060096;28;20028;-76
2022/04/09 11:07:21;;;;;;;4.88;1.90;;;;;;;22.71;22.08;101356.53;5063138;28;20085;-76
2022/04/09 11:09:58;;;;;;;4.53;2.08;;;;;;;23.39;22.25;101349.34;5066973;28;20035;-76
2022/04/09 11:12:31;;;;;;;7.93;3.03;;;;;;;24.40;21.21;101352.09;5050609;28;20051;-77
2022/04/09 11:15:09;;;;;;;6.93;1.98;;;;;;;25.02;19.57;101349.06;5063843;28;20064;-76
2022/04/09 11:17:40;;;;;;;11.10;2.25;;;;;;;25.23;20.42;101354.81;5063936;28;20398;-75
2022/04/09 11:20:06;;;;;;;4.00;1.85;;;;;;;25.71;18.98;101347.53;5061238;28;20409;-75
2022/04/09 11:22:32;;;;;;;8.90;2.35;;;;;;;25.63;18.82;101326.81;5036752;28;20458;-75
2022/04/09 11:24:58;;;;;;;3.35;1.90;;;;;;;25.66;18.01;101331.81;5034636;28;20039;-75